Time;durP1;ratioP1;P1;durP2;ratioP2;P2;SDS_P1;SDS_P2;PMS_P1;PMS_P2;Temp;Humidity;BMP_temperature;BMP_pressure;BME280_temperature;BME280_humidity;BME280_pressure;Samples;Min_cycle;Max_cycle;Signal;HPM_P1;HPM_P2
2022/12/24 00:01:04;;;;;;;5.47;1.38;;;12.50;99.90;;;;;;4895182;29;20514;-82
2022/12/24 00:03:32;;;;;;;6.97;1.20;;;12.50;99.90;;;;;;4888961;29;20085;-82
2022/12/24 00:06:04;;;;;;;2.58;1.55;;;12.50;99.90;;;;;;4907231;29;20100;-87
2022/12/24 00:08:31;;;;;;;5.40;1.48;;;12.50;99.90;;;;;;4914934;29;20047;-86
2022/12/24 00:10:57;;;;;;;6.00;1.52;;;12.50;99.90;;;;;;4916298;29;20051;-87
2022/12/24 00:13:24;;;;;;;6.05;1.20;;;12.50;99.90;;;;;;4917320;29;20060;-86
2022/12/24 00:15:51;;;;;;;7.82;2.00;;;12.50;99.90;;;;;;4911786;29;20071;-85
2022/12/24 00:18:17;;;;;;;2.97;1.50;;;12.50;99.90;;;;;;4906099;29;20475;-82
2022/12/24 00:20:47;;;;;;;4.40;1.30;;;12.50;99.90;;;;;;4890121;29;20514;-82
2022/12/24 00:23:14;;;;;;;4.90;1.40;;;12.50;99.90;;;;;;4888889;29;20504;-83
2022/12/24 00:25:41;;;;;;;3.75;1.23;;;12.50;99.90;;;;;;4889696;29;20561;-83
2022/12/24 00:28:08;;;;;;;3.15;1.23;;;12.50;99.90;;;;;;4892443;29;20052;-84
2022/12/24 00:30:37;;;;;;;5.28;1.67;;;12.50;99.90;;;;;;4898053;29;20056;-83
2022/12/24 00:33:05;;;;;;;7.38;1.75;;;12.50;99.90;;;;;;4889883;29;20064;-83
2022/12/24 00:35:36;;;;;;;5.28;1.15;;;12.50;99.90;;;;;;4898451;29;20055;-85
2022/12/24 00:38:03;;;;;;;4.63;1.83;;;12.50;99.90;;;;;;4898123;29;20048;-83
2022/12/24 00:40:30;;;;;;;3.80;1.48;;;12.50;99.90;;;;;;4885346;29;20060;-83
2022/12/24 00:42:57;;;;;;;2.80;0.88;;;12.50;99.90;;;;;;4893041;29;20067;-82
2022/12/24 00:45:26;;;;;;;4.60;1.52;;;12.50;99.90;;;;;;4890640;29;20418;-82
2022/12/24 00:47:53;;;;;;;7.45;1.63;;;12.50;99.90;;;;;;4889234;29;20427;-83
2022/12/24 00:50:19;;;;;;;3.78;1.23;;;12.50;99.90;;;;;;4895460;29;20438;-83
2022/12/24 00:52:47;;;;;;;3.47;1.17;;;12.50;99.90;;;;;;4891014;29;20554;-84
2022/12/24 00:55:14;;;;;;;5.10;1.48;;;12.50;99.90;;;;;;4884829;29;20053;-84
2022/12/24 00:57:41;;;;;;;4.68;1.30;;;12.50;99.90;;;;;;4891724;29;20526;-84
2022/12/24 01:00:10;;;;;;;7.35;1.85;;;12.50;99.90;;;;;;4879458;29;20049;-82
2022/12/24 01:02:36;;;;;;;3.30;1.10;;;12.50;99.90;;;;;;4880610;29;20045;-83
2022/12/24 01:05:10;;;;;;;2.58;1.25;;;12.50;99.90;;;;;;4895698;29;20057;-82
2022/12/24 01:07:39;;;;;;;6.13;1.15;;;12.50;99.90;;;;;;4893456;29;20510;-82
2022/12/24 01:10:07;;;;;;;3.83;1.67;;;12.50;99.90;;;;;;4885105;29;20064;-84
2022/12/24 01:12:34;;;;;;;5.45;1.17;;;12.50;99.90;;;;;;4883067;29;20049;-83
2022/12/24 01:15:01;;;;;;;7.47;1.25;;;12.50;99.90;;;;;;4885387;29;20483;-82
2022/12/24 01:17:29;;;;;;;5.18;1.10;;;12.50;99.90;;;;;;4888492;29;20053;-84
2022/12/24 01:19:56;;;;;;;6.30;1.20;;;12.50;99.90;;;;;;4887060;29;20135;-84
2022/12/24 01:22:23;;;;;;;6.78;1.25;;;12.50;99.90;;;;;;4892774;29;20045;-84
2022/12/24 01:24:49;;;;;;;5.88;1.25;;;12.50;99.90;;;;;;4892014;29;20066;-82
2022/12/24 01:27:16;;;;;;;5.70;1.33;;;12.50;99.90;;;;;;4890547;29;20056;-85
2022/12/24 01:29:43;;;;;;;7.47;1.40;;;12.50;99.90;;;;;;4886301;29;20405;-84
2022/12/24 01:32:10;;;;;;;7.30;2.17;;;12.50;99.90;;;;;;4888525;29;20072;-82
2022/12/24 01:34:36;;;;;;;7.88;1.48;;;12.40;99.90;;;;;;4888968;29;20060;-82
2022/12/24 01:37:03;;;;;;;7.88;1.40;;;12.40;99.90;;;;;;4885937;29;20113;-84
2022/12/24 01:39:30;;;;;;;7.13;1.55;;;12.40;99.90;;;;;;4895293;29;20472;-82
2022/12/24 01:45:15;;;;;;;6.30;1.50;;;12.40;99.90;;;;;;4874605;29;20044;-82
2022/12/24 01:47:42;;;;;;;7.95;1.52;;;12.40;99.90;;;;;;4895084;29;20064;-84
2022/12/24 01:50:16;;;;;;;7.75;1.95;;;12.40;99.90;;;;;;4886593;29;20065;-83
2022/12/24 01:52:43;;;;;;;9.20;2.08;;;12.30;99.90;;;;;;4887777;29;20053;-83
2022/12/24 01:55:14;;;;;;;9.45;2.03;;;12.30;99.90;;;;;;4887209;29;20063;-85
2022/12/24 01:57:55;;;;;;;6.43;1.40;;;12.30;99.90;;;;;;4887441;29;20071;-82
2022/12/24 02:00:22;;;;;;;8.60;1.88;;;12.30;99.90;;;;;;4888799;29;20060;-83
2022/12/24 02:02:51;;;;;;;7.13;1.58;;;12.30;99.90;;;;;;4887820;29;20045;-85
2022/12/24 02:05:25;;;;;;;9.70;2.08;;;12.30;99.90;;;;;;4885842;29;20059;-84
2022/12/24 02:07:52;;;;;;;5.32;1.58;;;12.40;99.90;;;;;;4883209;29;20053;-84
2022/12/24 02:10:19;;;;;;;7.07;1.73;;;12.30;99.90;;;;;;4888038;29;20057;-83
2022/12/24 02:12:46;;;;;;;9.32;2.13;;;12.30;99.90;;;;;;4893061;29;20132;-83
2022/12/24 02:15:18;;;;;;;9.90;1.73;;;12.30;99.90;;;;;;4887924;29;20064;-84
2022/12/24 02:18:05;;;;;;;6.10;1.50;;;12.30;99.90;;;;;;4895356;29;20425;-84
2022/12/24 02:20:50;;;;;;;6.07;1.60;;;12.30;99.90;;;;;;4894601;29;20076;-84
2022/12/24 02:23:50;;;;;;;6.32;1.63;;;12.30;99.90;;;;;;4886624;29;20056;-84
2022/12/24 02:26:26;;;;;;;8.38;1.52;;;12.30;99.90;;;;;;4884212;29;20060;-83
2022/12/24 02:29:30;;;;;;;8.30;1.98;;;12.30;99.90;;;;;;4890347;29;20056;-83
2022/12/24 02:32:19;;;;;;;8.63;1.85;;;12.30;99.90;;;;;;4884221;29;20420;-84
2022/12/24 02:35:00;;;;;;;11.57;1.92;;;12.30;99.90;;;;;;4887239;29;20056;-82
2022/12/24 02:37:36;;;;;;;7.18;1.33;;;12.20;99.90;;;;;;4894613;29;20056;-84
2022/12/24 02:40:24;;;;;;;7.63;1.58;;;12.20;99.90;;;;;;4889257;29;20096;-84
2022/12/24 02:42:57;;;;;;;5.65;1.85;;;12.20;99.90;;;;;;4885651;29;20064;-83
2022/12/24 02:45:32;;;;;;;8.95;1.45;;;12.20;99.90;;;;;;4887422;29;20052;-83
2022/12/24 02:48:00;;;;;;;11.48;2.15;;;12.20;99.90;;;;;;4889021;29;20049;-84
2022/12/24 02:50:27;;;;;;;7.53;2.03;;;12.20;99.90;;;;;;4887166;29;20053;-82
2022/12/24 02:52:53;;;;;;;5.90;1.58;;;12.20;99.90;;;;;;4889303;29;20049;-85
2022/12/24 02:55:37;;;;;;;10.77;2.15;;;12.20;99.90;;;;;;4890954;29;20117;-84
2022/12/24 02:58:35;;;;;;;9.90;1.70;;;12.20;99.90;;;;;;4882759;29;20109;-84
2022/12/24 03:01:43;;;;;;;8.70;1.85;;;12.20;99.90;;;;;;4905439;29;20056;-84
2022/12/24 03:04:18;;;;;;;8.13;1.60;;;12.10;99.90;;;;;;4879196;29;20068;-84
2022/12/24 03:06:51;;;;;;;7.57;1.73;;;12.20;99.90;;;;;;4884242;29;20059;-84
2022/12/24 03:09:32;;;;;;;12.57;1.70;;;12.20;99.90;;;;;;4890677;29;20061;-84
2022/12/24 03:12:05;;;;;;;16.38;2.00;;;12.10;99.90;;;;;;4892469;29;20045;-84
2022/12/24 03:14:33;;;;;;;9.63;2.38;;;12.10;99.90;;;;;;4900806;29;20059;-83
2022/12/24 03:17:02;;;;;;;8.18;1.42;;;12.10;99.90;;;;;;4897937;29;20072;-82
2022/12/24 03:19:30;;;;;;;8.48;2.08;;;12.10;99.90;;;;;;4896021;29;20063;-84
2022/12/24 03:22:00;;;;;;;7.47;1.65;;;12.10;99.90;;;;;;4903665;29;20513;-82
2022/12/24 03:24:27;;;;;;;8.23;1.88;;;12.10;99.90;;;;;;4901374;29;20055;-83
2022/12/24 03:26:54;;;;;;;11.77;1.95;;;12.20;99.90;;;;;;4887898;29;20045;-82
2022/12/24 03:29:21;;;;;;;6.85;1.88;;;12.10;99.90;;;;;;4896651;29;20502;-83
2022/12/24 03:31:51;;;;;;;13.88;2.38;;;12.10;99.90;;;;;;4892161;29;20104;-82
2022/12/24 03:34:18;;;;;;;11.05;1.85;;;12.10;99.90;;;;;;4889639;29;20048;-82
2022/12/24 03:36:47;;;;;;;11.35;2.05;;;12.10;99.90;;;;;;4889823;29;20084;-83
2022/12/24 03:39:13;;;;;;;8.18;1.70;;;12.10;99.90;;;;;;4889481;29;20108;-83
2022/12/24 03:41:40;;;;;;;11.32;2.25;;;12.10;99.90;;;;;;4893901;29;20048;-83
2022/12/24 03:44:07;;;;;;;14.27;2.33;;;12.20;99.90;;;;;;4890058;29;20049;-82
2022/12/24 03:46:33;;;;;;;11.65;2.13;;;12.20;99.90;;;;;;4897157;29;20446;-82
2022/12/24 03:49:00;;;;;;;13.80;2.45;;;12.20;99.90;;;;;;4893901;29;20052;-82
2022/12/24 03:51:27;;;;;;;15.75;2.65;;;12.20;99.90;;;;;;4890899;29;20541;-82
2022/12/24 03:53:55;;;;;;;15.88;2.22;;;12.20;99.90;;;;;;4898484;29;20057;-83
2022/12/24 03:56:23;;;;;;;14.05;2.30;;;12.10;99.90;;;;;;4890172;29;20064;-83
2022/12/24 03:58:50;;;;;;;11.32;2.17;;;12.10;99.90;;;;;;4888662;29;20478;-82
2022/12/24 04:01:17;;;;;;;9.32;2.20;;;12.10;99.90;;;;;;4892133;29;20457;-82
2022/12/24 04:03:44;;;;;;;15.90;3.10;;;12.10;99.90;;;;;;4887966;29;20044;-82
2022/12/24 04:06:13;;;;;;;21.38;2.88;;;12.10;99.90;;;;;;4894906;29;20108;-82
2022/12/24 04:08:41;;;;;;;14.73;3.50;;;12.10;99.90;;;;;;4884009;29;20053;-84
2022/12/24 04:11:10;;;;;;;13.00;2.22;;;12.10;99.90;;;;;;4894431;29;20049;-83
2022/12/24 04:13:37;;;;;;;19.50;3.60;;;12.10;99.90;;;;;;4885239;29;20534;-84
2022/12/24 04:16:15;;;;;;;15.85;2.53;;;12.20;99.90;;;;;;4885321;29;20056;-82
2022/12/24 04:18:42;;;;;;;15.82;2.60;;;12.10;99.90;;;;;;4885941;29;20434;-84
2022/12/24 04:21:10;;;;;;;18.35;2.67;;;12.10;99.90;;;;;;4888693;29;20089;-83
2022/12/24 04:23:38;;;;;;;12.57;2.65;;;12.10;99.90;;;;;;4898373;29;20057;-82
2022/12/24 04:26:07;;;;;;;12.18;2.28;;;12.10;99.90;;;;;;4888341;29;20483;-82
2022/12/24 04:28:34;;;;;;;9.65;2.15;;;12.10;99.90;;;;;;4886805;29;20052;-82
2022/12/24 04:31:03;;;;;;;17.70;2.72;;;12.10;99.90;;;;;;4896949;29;20171;-82
2022/12/24 04:33:30;;;;;;;19.95;3.10;;;12.10;99.90;;;;;;4885453;29;20052;-84
2022/12/24 04:35:58;;;;;;;11.57;3.03;;;12.10;99.90;;;;;;4892419;29;20053;-82
2022/12/24 04:38:25;;;;;;;19.05;3.47;;;12.00;99.90;;;;;;4896639;29;20159;-83
2022/12/24 04:41:11;;;;;;;11.18;2.67;;;12.00;99.90;;;;;;4895659;29;20400;-83
2022/12/24 04:43:46;;;;;;;16.27;2.97;;;12.00;99.90;;;;;;4886217;29;20053;-82
2022/12/24 04:46:17;;;;;;;9.68;2.95;;;12.00;99.90;;;;;;4895795;29;20044;-82
2022/12/24 04:48:45;;;;;;;17.05;2.80;;;12.00;99.90;;;;;;4878643;29;20143;-82
2022/12/24 04:51:13;;;;;;;17.23;2.38;;;12.10;99.90;;;;;;4880296;29;20061;-82
2022/12/24 04:53:41;;;;;;;15.25;3.20;;;12.00;99.90;;;;;;4887173;29;20053;-82
2022/12/24 04:56:12;;;;;;;18.48;2.50;;;12.00;99.90;;;;;;4887134;29;20422;-82
2022/12/24 04:58:38;;;;;;;;;;;12.00;99.90;;;;;;4896119;29;20056;-82
2022/12/24 05:01:07;;;;;;;8.63;2.20;;;12.00;99.90;;;;;;4888686;29;19949;-82
2022/12/24 05:03:34;;;;;;;12.23;2.45;;;12.00;99.90;;;;;;4887589;29;20056;-82
2022/12/24 05:06:07;;;;;;;12.50;2.47;;;12.00;99.90;;;;;;4892217;29;20057;-82
2022/12/24 05:08:34;;;;;;;9.38;2.33;;;12.00;99.90;;;;;;4889260;29;20059;-82
2022/12/24 05:11:02;;;;;;;8.90;2.05;;;12.00;99.90;;;;;;4903799;29;20049;-85
2022/12/24 05:13:29;;;;;;;14.50;2.13;;;12.00;99.90;;;;;;4887476;29;20053;-82
2022/12/24 05:16:08;;;;;;;10.32;2.15;;;12.00;99.90;;;;;;4888071;29;20075;-83
2022/12/24 05:18:35;;;;;;;10.38;2.25;;;12.00;99.90;;;;;;4887803;29;20554;-82
2022/12/24 05:21:06;;;;;;;12.32;2.20;;;12.00;99.90;;;;;;4892366;29;20470;-82
2022/12/24 05:26:24;;;;;;;7.22;1.90;;;12.00;99.90;;;;;;4888626;29;20049;-82
2022/12/24 05:28:54;;;;;;;13.80;2.20;;;12.00;99.90;;;;;;4885435;29;20049;-83
2022/12/24 05:31:23;;;;;;;11.35;2.53;;;11.90;99.90;;;;;;4883475;29;20049;-82
2022/12/24 05:33:50;;;;;;;7.47;1.73;;;11.90;99.90;;;;;;4892224;29;20123;-82
2022/12/24 05:36:17;;;;;;;13.82;3.42;;;11.90;99.90;;;;;;4886769;29;20055;-82
2022/12/24 05:38:43;;;;;;;11.23;2.63;;;12.00;99.90;;;;;;4893248;29;20566;-83
2022/12/24 05:41:10;;;;;;;12.05;2.42;;;12.00;99.90;;;;;;4879388;29;20060;-82
2022/12/24 05:43:37;;;;;;;13.43;2.45;;;12.00;99.90;;;;;;4909272;29;20097;-86
2022/12/24 05:46:07;;;;;;;10.13;2.15;;;12.00;99.90;;;;;;4919983;29;20033;-86
2022/12/24 05:48:34;;;;;;;10.13;2.40;;;12.00;99.90;;;;;;4915476;29;20064;-85
2022/12/24 05:51:06;;;;;;;11.50;2.10;;;12.00;99.90;;;;;;4914495;29;20059;-87
2022/12/24 05:53:35;;;;;;;10.93;2.20;;;12.00;99.90;;;;;;4920242;29;20033;-86
2022/12/24 05:56:07;;;;;;;17.38;2.35;;;12.00;99.90;;;;;;4901612;29;20057;-83
2022/12/24 05:58:34;;;;;;;13.38;2.45;;;12.00;99.90;;;;;;4887163;29;20084;-83
2022/12/24 06:01:02;;;;;;;9.02;2.42;;;12.00;99.90;;;;;;4888929;29;20150;-83
2022/12/24 06:03:30;;;;;;;10.68;2.15;;;11.90;99.90;;;;;;4889725;29;20048;-84
2022/12/24 06:05:58;;;;;;;9.82;2.42;;;11.90;99.90;;;;;;4893889;29;20479;-82
2022/12/24 06:08:26;;;;;;;7.57;2.13;;;11.90;99.90;;;;;;4900536;29;20059;-84
2022/12/24 06:10:55;;;;;;;16.80;2.63;;;11.90;99.90;;;;;;4890755;29;20506;-84
2022/12/24 06:13:22;;;;;;;11.48;2.03;;;11.90;99.90;;;;;;4895287;29;20609;-85
2022/12/24 06:15:48;;;;;;;9.07;2.38;;;11.90;99.90;;;;;;4886964;29;20130;-84
2022/12/24 06:18:15;;;;;;;11.20;2.42;;;11.90;99.90;;;;;;4891428;29;20510;-85
2022/12/24 06:20:42;;;;;;;9.93;2.15;;;11.90;99.90;;;;;;4896816;29;20055;-84
2022/12/24 06:23:09;;;;;;;7.18;2.03;;;11.90;99.90;;;;;;4890066;29;20052;-85
2022/12/24 06:25:35;;;;;;;15.93;2.10;;;11.90;99.90;;;;;;4895791;29;20064;-83
2022/12/24 06:28:02;;;;;;;11.93;2.45;;;11.90;99.90;;;;;;4895263;29;20056;-84
2022/12/24 06:30:29;;;;;;;12.85;2.53;;;11.90;99.90;;;;;;4889926;29;20064;-84
2022/12/24 06:32:55;;;;;;;9.95;1.75;;;11.90;99.90;;;;;;4889763;29;20059;-83
2022/12/24 06:35:22;;;;;;;8.88;1.77;;;11.90;99.90;;;;;;4889121;29;20075;-85
2022/12/24 06:37:49;;;;;;;9.80;2.08;;;11.90;99.90;;;;;;4884208;29;20053;-82
2022/12/24 06:40:15;;;;;;;9.13;2.05;;;11.90;99.90;;;;;;4887441;29;20341;-85
2022/12/24 06:42:42;;;;;;;12.85;2.47;;;11.90;99.90;;;;;;4887999;29;20052;-83
2022/12/24 06:45:09;;;;;;;6.40;2.17;;;11.90;99.90;;;;;;4889490;29;20346;-83
2022/12/24 06:47:36;;;;;;;7.97;2.20;;;11.90;99.90;;;;;;4889012;29;20053;-84
2022/12/24 06:50:03;;;;;;;8.40;2.60;;;11.90;99.90;;;;;;4894469;29;20057;-85
2022/12/24 06:52:30;;;;;;;10.50;1.90;;;11.90;99.90;;;;;;4898777;29;20059;-83
2022/12/24 06:54:56;;;;;;;14.73;2.75;;;11.90;99.90;;;;;;4894736;29;20048;-83
2022/12/24 06:57:23;;;;;;;5.57;1.77;;;11.90;99.90;;;;;;4896383;29;20052;-84
2022/12/24 06:59:49;;;;;;;10.25;2.05;;;11.90;99.90;;;;;;4891948;29;20068;-85
2022/12/24 07:02:16;;;;;;;15.30;1.90;;;11.90;99.90;;;;;;4892871;29;20206;-84
2022/12/24 07:04:43;;;;;;;15.73;2.50;;;11.90;99.90;;;;;;4893800;29;20053;-83
2022/12/24 07:07:10;;;;;;;13.00;2.22;;;11.80;99.90;;;;;;4889985;29;20048;-83
2022/12/24 07:09:36;;;;;;;15.43;2.45;;;11.80;99.90;;;;;;4903859;29;20057;-85
2022/12/24 07:12:03;;;;;;;15.10;2.65;;;11.80;99.90;;;;;;4889746;29;20053;-85
2022/12/24 07:14:31;;;;;;;13.43;3.15;;;11.80;99.90;;;;;;4896753;29;20057;-84
2022/12/24 07:16:58;;;;;;;13.70;3.10;;;11.80;99.90;;;;;;4902037;29;20094;-82
2022/12/24 07:19:25;;;;;;;15.10;2.95;;;11.80;99.90;;;;;;4906796;29;20545;-82
2022/12/24 07:21:52;;;;;;;11.85;2.63;;;11.80;99.90;;;;;;4901957;29;20049;-82
2022/12/24 07:24:19;;;;;;;10.73;2.38;;;11.80;99.90;;;;;;4907237;29;20049;-83
2022/12/24 07:26:46;;;;;;;17.88;2.95;;;11.80;99.90;;;;;;4899070;29;20049;-83
2022/12/24 07:29:12;;;;;;;14.63;2.20;;;11.80;99.90;;;;;;4891240;29;20056;-84
2022/12/24 07:31:39;;;;;;;15.10;2.80;;;11.80;99.90;;;;;;4897977;29;20053;-82
2022/12/24 07:34:06;;;;;;;13.55;2.45;;;11.80;99.90;;;;;;4892806;29;20058;-83
2022/12/24 07:36:33;;;;;;;11.88;2.85;;;11.80;99.90;;;;;;4891232;29;20058;-83
2022/12/24 07:38:59;;;;;;;19.38;2.58;;;11.80;99.90;;;;;;4903290;29;20048;-84
2022/12/24 07:41:26;;;;;;;12.40;2.83;;;11.80;99.90;;;;;;4888420;29;20060;-82
2022/12/24 07:43:53;;;;;;;6.28;1.92;;;11.80;99.90;;;;;;4892739;29;20045;-81
2022/12/24 07:46:20;;;;;;;12.98;2.45;;;11.70;99.90;;;;;;4883169;29;20423;-84
2022/12/24 07:48:47;;;;;;;19.70;2.95;;;11.80;99.90;;;;;;4898191;29;20049;-84
2022/12/24 07:51:14;;;;;;;17.33;2.90;;;11.80;99.90;;;;;;4898184;29;20502;-84
2022/12/24 07:53:46;;;;;;;11.48;2.40;;;11.70;99.90;;;;;;4888280;29;20053;-86
2022/12/24 07:56:16;;;;;;;9.68;2.85;;;11.70;99.90;;;;;;4893772;29;20049;-84
2022/12/24 07:58:42;;;;;;;12.50;3.53;;;11.70;99.90;;;;;;4896440;29;20083;-83
2022/12/24 08:01:09;;;;;;;10.88;2.47;;;11.80;99.90;;;;;;4888273;29;20517;-85
2022/12/24 08:03:37;;;;;;;14.77;2.20;;;11.80;99.90;;;;;;4889946;29;20111;-83
2022/12/24 08:06:04;;;;;;;8.60;2.55;;;11.80;99.90;;;;;;4893443;29;20132;-83
2022/12/24 08:08:31;;;;;;;9.23;2.60;;;11.80;99.90;;;;;;4887580;29;20064;-84
2022/12/24 08:11:02;;;;;;;8.43;2.10;;;11.90;99.90;;;;;;4895490;29;20078;-82
2022/12/24 08:13:29;;;;;;;10.57;2.60;;;11.90;99.90;;;;;;4899079;29;20057;-83
2022/12/24 08:15:56;;;;;;;14.18;2.55;;;11.90;99.90;;;;;;4904160;29;20049;-84
2022/12/24 08:18:23;;;;;;;11.88;2.10;;;11.80;99.90;;;;;;4889769;29;20392;-83
2022/12/24 08:20:50;;;;;;;11.05;2.08;;;11.90;99.90;;;;;;4892702;29;20052;-84
2022/12/24 08:23:17;;;;;;;10.95;2.03;;;11.90;99.90;;;;;;4891727;29;20053;-82
2022/12/24 08:25:46;;;;;;;16.13;2.50;;;12.00;99.90;;;;;;4890467;29;20533;-84
2022/12/24 08:28:15;;;;;;;12.80;2.15;;;12.00;99.90;;;;;;4892998;29;20090;-82
2022/12/24 08:30:42;;;;;;;8.75;1.73;;;12.00;99.90;;;;;;4895861;29;20063;-82
2022/12/24 08:33:09;;;;;;;7.82;1.80;;;12.10;99.90;;;;;;4892146;29;20056;-83
2022/12/24 08:35:36;;;;;;;4.93;1.70;;;12.10;99.90;;;;;;4908273;29;20100;-84
2022/12/24 08:38:03;;;;;;;12.60;2.50;;;12.10;99.90;;;;;;4904151;29;20076;-83
2022/12/24 08:40:29;;;;;;;12.93;2.47;;;12.20;99.90;;;;;;4913597;29;20113;-84
2022/12/24 08:42:56;;;;;;;7.90;1.92;;;12.20;99.90;;;;;;4909167;29;20053;-85
2022/12/24 08:45:23;;;;;;;8.90;1.58;;;12.30;99.90;;;;;;4904805;29;20060;-85
2022/12/24 08:47:50;;;;;;;10.60;2.05;;;12.30;99.90;;;;;;4906423;29;20053;-84
2022/12/24 08:50:16;;;;;;;7.50;1.98;;;12.30;99.90;;;;;;4909209;29;20052;-82
2022/12/24 08:52:43;;;;;;;6.88;2.38;;;12.30;99.90;;;;;;4905604;29;20053;-85
2022/12/24 08:55:10;;;;;;;10.73;1.80;;;12.30;99.90;;;;;;4894170;29;20045;-83
2022/12/24 08:57:37;;;;;;;8.10;1.98;;;12.30;99.90;;;;;;4895614;29;20044;-83
2022/12/24 09:00:06;;;;;;;6.03;1.60;;;12.30;99.90;;;;;;4891234;29;20055;-83
2022/12/24 09:02:33;;;;;;;5.97;1.40;;;12.30;99.90;;;;;;4896573;29;20491;-82
2022/12/24 09:05:00;;;;;;;4.78;1.25;;;12.30;99.90;;;;;;4894504;29;20139;-82
2022/12/24 09:07:26;;;;;;;5.45;1.23;;;12.30;99.90;;;;;;4893177;29;20071;-81
2022/12/24 09:09:53;;;;;;;6.00;1.95;;;12.20;99.90;;;;;;4896508;29;20049;-83
2022/12/24 09:12:20;;;;;;;4.43;1.02;;;12.30;99.90;;;;;;4892316;29;20506;-83
2022/12/24 09:14:46;;;;;;;5.80;1.10;;;12.30;99.90;;;;;;4899538;29;20049;-82
2022/12/24 09:17:13;;;;;;;5.65;1.10;;;12.30;99.90;;;;;;4892682;29;20516;-83
2022/12/24 09:19:40;;;;;;;6.53;1.45;;;12.30;99.90;;;;;;4889721;29;20065;-83
2022/12/24 09:22:06;;;;;;;5.55;1.17;;;12.30;99.90;;;;;;4893369;29;20048;-82
2022/12/24 09:24:35;;;;;;;3.33;1.30;;;12.30;99.90;;;;;;4888220;29;20403;-83
2022/12/24 09:27:02;;;;;;;5.78;1.50;;;12.40;99.90;;;;;;4888479;29;20425;-82
2022/12/24 09:29:30;;;;;;;5.43;1.20;;;12.40;99.90;;;;;;4885435;29;20052;-82
2022/12/24 09:31:57;;;;;;;4.20;1.02;;;12.40;99.90;;;;;;4899389;29;20139;-82
2022/12/24 09:34:25;;;;;;;5.63;1.05;;;12.50;99.90;;;;;;4915695;29;20134;-82
2022/12/24 09:36:56;;;;;;;2.63;1.00;;;12.50;99.90;;;;;;4892706;29;20048;-82
2022/12/24 09:39:23;;;;;;;8.18;1.30;;;12.60;99.90;;;;;;4891758;29;20510;-83
2022/12/24 09:42:25;;;;;;;5.82;1.15;;;12.70;99.90;;;;;;4891259;29;20482;-82
2022/12/24 09:44:59;;;;;;;2.80;0.90;;;12.80;99.90;;;;;;4890044;29;20578;-82
2022/12/24 09:48:15;;;;;;;5.45;1.00;;;12.80;99.90;;;;;;4892485;29;21793;-82
2022/12/24 09:50:50;;;;;;;1.85;0.60;;;12.90;99.90;;;;;;4848399;29;20259;-81
2022/12/24 09:53:47;;;;;;;4.25;0.93;;;13.00;99.90;;;;;;4891432;29;20052;-83
2022/12/24 09:56:19;;;;;;;3.45;0.80;;;13.00;99.90;;;;;;4888606;29;20423;-82
2022/12/24 09:59:03;;;;;;;4.75;1.10;;;13.10;99.90;;;;;;4888397;29;20057;-82
2022/12/24 10:01:31;;;;;;;4.03;1.30;;;13.20;99.90;;;;;;4888806;29;20050;-82
2022/12/24 10:04:02;;;;;;;6.15;0.98;;;13.20;99.90;;;;;;4892522;29;20059;-82
2022/12/24 10:07:02;;;;;;;2.13;0.90;;;13.30;99.90;;;;;;4893110;29;20061;-82
2022/12/24 10:09:46;;;;;;;5.53;0.93;;;13.30;99.90;;;;;;4892205;29;20052;-84
2022/12/24 10:12:18;;;;;;;3.95;0.70;;;13.30;99.90;;;;;;4888460;29;20048;-81
2022/12/24 10:15:09;;;;;;;1.90;0.98;;;13.40;99.90;;;;;;4889049;29;20427;-81
2022/12/24 10:18:02;;;;;;;1.80;0.93;;;13.40;99.90;;;;;;4891745;29;20648;-82
2022/12/24 10:20:46;;;;;;;4.88;1.35;;;13.40;99.90;;;;;;4891868;29;20057;-81
2022/12/24 10:23:46;;;;;;;6.88;1.30;;;13.40;99.90;;;;;;4890711;29;20411;-80
2022/12/24 10:26:29;;;;;;;3.25;0.80;;;13.30;99.90;;;;;;4887857;29;20461;-80
2022/12/24 10:29:00;;;;;;;3.60;1.02;;;13.30;99.90;;;;;;4902595;29;20056;-81
2022/12/24 10:31:36;;;;;;;4.03;0.98;;;13.20;99.90;;;;;;4891109;29;20137;-80
2022/12/24 10:34:15;;;;;;;2.58;0.68;;;13.20;99.90;;;;;;4892065;29;20064;-84
2022/12/24 10:36:42;;;;;;;2.08;0.80;;;13.20;99.90;;;;;;4883158;29;20064;-81
2022/12/24 10:39:17;;;;;;;5.75;0.98;;;13.20;99.90;;;;;;4893201;29;20402;-80
2022/12/24 10:41:47;;;;;;;3.78;0.80;;;13.20;99.90;;;;;;4894081;29;20056;-81
2022/12/24 10:44:16;;;;;;;4.32;0.93;;;13.20;99.90;;;;;;4891498;29;20045;-81
2022/12/24 10:46:44;;;;;;;2.60;0.75;;;13.20;99.90;;;;;;4887866;29;20522;-80
2022/12/24 10:49:15;;;;;;;1.95;0.90;;;13.20;99.90;;;;;;4888823;29;20051;-80
2022/12/24 10:51:49;;;;;;;2.88;0.68;;;13.10;99.90;;;;;;4887336;29;20048;-80
2022/12/24 10:54:19;;;;;;;1.98;0.70;;;13.10;99.90;;;;;;4889654;29;20049;-81
2022/12/24 10:56:58;;;;;;;2.03;1.10;;;13.10;99.90;;;;;;4884288;29;20180;-80
2022/12/24 10:59:32;;;;;;;3.97;1.25;;;13.10;99.90;;;;;;4893310;29;20140;-79
2022/12/24 11:02:00;;;;;;;3.22;0.88;;;13.10;99.90;;;;;;4896207;29;20055;-80
2022/12/24 11:04:29;;;;;;;1.92;0.93;;;13.10;99.90;;;;;;4893721;29;20085;-80
2022/12/24 11:07:01;;;;;;;2.73;1.10;;;13.10;99.90;;;;;;4895901;29;20049;-80
2022/12/24 11:09:29;;;;;;;2.28;0.98;;;13.10;99.90;;;;;;4890534;29;20051;-81
2022/12/24 11:11:58;;;;;;;3.13;1.10;;;13.10;99.90;;;;;;4895199;29;20048;-80
2022/12/24 11:14:36;;;;;;;2.20;0.68;;;13.10;99.90;;;;;;4890161;29;20430;-79
2022/12/24 11:17:03;;;;;;;1.50;0.77;;;13.10;99.90;;;;;;4893750;29;20458;-80
2022/12/24 11:19:33;;;;;;;6.05;1.10;;;13.10;99.90;;;;;;4887740;29;20135;-80
2022/12/24 11:22:03;;;;;;;4.22;0.85;;;13.10;99.90;;;;;;4884659;29;20049;-81
2022/12/24 11:24:34;;;;;;;1.70;0.90;;;13.10;99.90;;;;;;4892340;29;20056;-80
2022/12/24 11:27:39;;;;;;;26.25;14.95;;;13.20;99.90;;;;;;4886732;29;20051;-80
2022/12/24 11:30:15;;;;;;;15.82;8.45;;;13.20;99.90;;;;;;4907261;29;20053;-79
2022/12/24 11:32:44;;;;;;;12.27;5.70;;;13.20;99.90;;;;;;4895411;29;20061;-83
2022/12/24 11:35:20;;;;;;;6.60;3.70;;;13.20;99.90;;;;;;4895225;29;20494;-82
2022/12/24 11:37:59;;;;;;;3.75;2.45;;;13.20;99.90;;;;;;4888917;29;20075;-81
2022/12/24 11:40:43;;;;;;;3.40;1.55;;;13.20;99.90;;;;;;4893412;29;20048;-81
2022/12/24 11:43:44;;;;;;;3.15;1.33;;;13.30;99.90;;;;;;4892101;29;20049;-83
2022/12/24 11:46:21;;;;;;;3.30;1.45;;;13.30;99.90;;;;;;4894841;29;20087;-83
2022/12/24 11:49:15;;;;;;;2.90;1.10;;;13.30;99.90;;;;;;4897126;29;20057;-82
2022/12/24 11:52:09;;;;;;;4.88;1.15;;;13.30;99.90;;;;;;4899338;29;20057;-82
2022/12/24 11:54:54;;;;;;;5.20;1.15;;;13.40;99.90;;;;;;4892080;29;20057;-83
2022/12/24 11:57:26;;;;;;;5.47;1.75;;;13.40;99.90;;;;;;4895935;29;20093;-81
2022/12/24 11:59:53;;;;;;;2.85;0.90;;;13.50;99.90;;;;;;4896063;29;20052;-82
2022/12/24 12:02:36;;;;;;;2.80;0.80;;;13.50;99.90;;;;;;4896831;29;20052;-82
2022/12/24 12:05:10;;;;;;;2.22;1.33;;;13.60;99.90;;;;;;4895839;29;20056;-83
2022/12/24 12:07:38;;;;;;;3.70;1.10;;;13.60;99.90;;;;;;4896109;29;20524;-83
2022/12/24 12:10:19;;;;;;;5.85;1.23;;;13.60;99.90;;;;;;4892174;29;20049;-83
2022/12/24 12:12:56;;;;;;;3.15;1.20;;;13.60;99.90;;;;;;4903196;29;20120;-82
2022/12/24 12:15:27;;;;;;;4.35;1.05;;;13.60;99.90;;;;;;4891216;29;20144;-82
2022/12/24 12:18:05;;;;;;;8.07;1.20;;;13.60;99.90;;;;;;4888906;29;20061;-82
2022/12/24 12:20:39;;;;;;;5.32;1.10;;;13.60;99.90;;;;;;4893539;29;20061;-83
2022/12/24 12:23:14;;;;;;;2.60;1.02;;;13.60;99.90;;;;;;4889770;29;20143;-83
2022/12/24 12:26:11;;;;;;;4.00;1.10;;;13.60;99.90;;;;;;4891196;29;20049;-82
2022/12/24 12:28:54;;;;;;;4.50;1.08;;;13.70;99.90;;;;;;4894882;29;20128;-83
2022/12/24 12:31:41;;;;;;;2.20;1.33;;;13.70;99.90;;;;;;4890842;29;20590;-83
2022/12/24 12:34:37;;;;;;;9.80;2.70;;;13.70;99.90;;;;;;4894887;29;20052;-82
2022/12/24 12:37:32;;;;;;;5.53;1.75;;;13.70;99.90;;;;;;4898877;29;20059;-81
2022/12/24 12:39:59;;;;;;;3.78;1.30;;;13.70;99.90;;;;;;4899318;29;20119;-83
2022/12/24 12:42:33;;;;;;;7.57;2.30;;;13.70;99.90;;;;;;4898056;29;20414;-81
2022/12/24 12:45:21;;;;;;;4.97;1.77;;;13.70;99.90;;;;;;4895168;29;20140;-83
2022/12/24 12:48:20;;;;;;;5.20;1.00;;;13.70;99.90;;;;;;4890632;29;20472;-81
2022/12/24 12:51:01;;;;;;;7.15;1.40;;;13.60;99.90;;;;;;4890717;29;20048;-81
2022/12/24 12:53:55;;;;;;;5.18;1.67;;;13.60;99.90;;;;;;4890105;29;20507;-82
2022/12/24 12:56:36;;;;;;;3.05;1.27;;;13.60;99.90;;;;;;4891250;29;20053;-81
2022/12/24 12:59:10;;;;;;;5.43;1.45;;;13.60;99.90;;;;;;4888024;29;20057;-82
2022/12/24 13:01:58;;;;;;;3.97;1.27;;;13.50;99.90;;;;;;4894388;29;20571;-83
2022/12/24 13:08:14;;;;;;;3.83;1.02;;;13.50;99.90;;;;;;4887313;29;20534;-83
2022/12/24 13:10:55;;;;;;;3.30;1.17;;;13.40;99.90;;;;;;4891843;29;20128;-83
2022/12/24 13:13:31;;;;;;;5.10;1.30;;;13.40;99.90;;;;;;4895986;29;20514;-81
2022/12/24 13:16:36;;;;;;;4.78;1.33;;;13.40;99.90;;;;;;4888491;29;20507;-82